createdAt,value
2018-12-24T00:02:58.670Z,6.12
2018-12-24T00:05:27.228Z,6.13
2018-12-24T00:08:14.936Z,6.10
2018-12-24T00:10:43.581Z,6.12
2018-12-24T00:13:12.178Z,6.11
2018-12-24T00:15:40.743Z,6.08
2018-12-24T00:18:09.326Z,6.10
2018-12-24T00:20:37.881Z,6.08
2018-12-24T00:23:06.469Z,6.12
2018-12-24T00:25:54.140Z,6.16
2018-12-24T00:28:22.734Z,6.17
2018-12-24T00:30:51.296Z,6.06
2018-12-24T00:33:19.883Z,6.05
2018-12-24T00:35:48.431Z,6.04
2018-12-24T00:38:17.007Z,6.03
2018-12-24T00:40:45.572Z,5.99
2018-12-24T00:43:14.175Z,5.99
2018-12-24T00:45:42.724Z,5.97
2018-12-24T00:48:11.346Z,5.93
2018-12-24T00:50:39.892Z,5.83
2018-12-24T00:53:08.482Z,5.73
2018-12-24T00:55:37.072Z,5.67
2018-12-24T00:58:05.613Z,5.44
2018-12-24T01:00:34.165Z,5.33
2018-12-24T01:03:02.748Z,5.23
2018-12-24T01:05:31.311Z,5.08
2018-12-24T01:08:20.532Z,5.01
2018-12-24T01:10:49.106Z,4.93
2018-12-24T01:13:17.690Z,4.87
2018-12-24T01:15:46.276Z,4.82
2018-12-24T01:18:14.898Z,4.80
2018-12-24T01:20:43.471Z,4.82
2018-12-24T01:23:12.090Z,4.70
2018-12-24T01:25:40.664Z,4.61
2018-12-24T01:28:09.301Z,4.55
2018-12-24T01:30:37.882Z,4.60
2018-12-24T01:33:06.464Z,4.62
2018-12-24T01:35:35.022Z,4.59
2018-12-24T01:38:03.609Z,4.53
2018-12-24T01:40:32.158Z,4.57
2018-12-24T01:43:00.736Z,4.51
2018-12-24T01:45:29.296Z,4.46
2018-12-24T01:47:57.878Z,4.45
2018-12-24T01:50:26.429Z,4.39
2018-12-24T01:52:55.014Z,4.40
2018-12-24T01:55:23.567Z,4.43
2018-12-24T01:57:52.153Z,4.42
2018-12-24T02:00:20.728Z,4.38
2018-12-24T02:02:49.322Z,4.41
2018-12-24T02:05:17.885Z,4.35
2018-12-24T02:07:46.471Z,4.28
2018-12-24T02:10:15.025Z,4.30
2018-12-24T02:12:43.616Z,4.25
2018-12-24T02:15:12.176Z,4.24
2018-12-24T02:17:40.850Z,4.28
2018-12-24T02:20:09.409Z,4.30
2018-12-24T02:22:38.038Z,4.28
2018-12-24T02:25:06.634Z,4.21
2018-12-24T02:27:35.213Z,4.20
2018-12-24T02:30:24.425Z,4.20
2018-12-24T02:32:53.013Z,4.17
2018-12-24T02:35:21.570Z,4.13
2018-12-24T02:37:50.139Z,4.11
2018-12-24T02:40:18.730Z,4.09
2018-12-24T02:43:06.624Z,4.11
2018-12-24T02:45:35.187Z,4.14
2018-12-24T02:48:03.771Z,4.07
2018-12-24T02:50:32.386Z,4.04
2018-12-24T02:53:00.961Z,4.03
2018-12-24T02:55:48.895Z,4.00
2018-12-24T02:58:17.483Z,3.99
2018-12-24T03:00:46.043Z,4.02
2018-12-24T03:03:14.628Z,3.95
2018-12-24T03:05:43.209Z,3.95
2018-12-24T03:08:11.809Z,3.90
2018-12-24T03:10:40.400Z,3.90
2018-12-24T03:13:08.971Z,3.86
2018-12-24T03:15:37.574Z,3.88
2018-12-24T03:18:06.176Z,3.82
2018-12-24T03:20:34.782Z,3.81
2018-12-24T03:23:03.374Z,3.81
2018-12-24T03:25:31.969Z,3.79
2018-12-24T03:28:00.529Z,3.69
2018-12-24T03:30:49.916Z,3.73
2018-12-24T03:33:18.479Z,3.76
2018-12-24T03:35:47.075Z,3.70
2018-12-24T03:38:15.640Z,3.69
2018-12-24T03:40:44.231Z,3.75
2018-12-24T03:43:13.239Z,3.71
2018-12-24T03:45:43.105Z,3.66
2018-12-24T03:48:11.680Z,3.69
2018-12-24T03:50:40.282Z,3.67
2018-12-24T03:53:08.882Z,3.66
2018-12-24T03:55:37.468Z,3.66
2018-12-24T03:58:06.070Z,3.65
2018-12-24T04:00:34.657Z,3.65
2018-12-24T04:03:03.270Z,3.66
2018-12-24T04:05:31.857Z,3.64
2018-12-24T04:08:00.421Z,3.67
2018-12-24T04:10:29.000Z,3.63
2018-12-24T04:12:57.584Z,3.64
2018-12-24T04:15:26.172Z,3.63
2018-12-24T04:17:54.782Z,3.63
2018-12-24T04:20:23.407Z,3.57
2018-12-24T04:22:51.943Z,3.59
2018-12-24T04:25:20.530Z,3.59
2018-12-24T04:27:49.109Z,3.61
2018-12-24T04:30:17.690Z,3.57
2018-12-24T04:32:46.306Z,3.53
2018-12-24T04:35:14.877Z,3.37
2018-12-24T04:37:43.496Z,3.39
2018-12-24T04:40:12.079Z,3.45
2018-12-24T04:42:40.699Z,3.40
2018-12-24T04:45:09.279Z,3.34
2018-12-24T04:47:37.849Z,3.18
2018-12-24T04:50:06.432Z,3.13
2018-12-24T04:52:35.076Z,3.09
2018-12-24T04:55:03.653Z,2.95
2018-12-24T04:57:32.250Z,2.91
2018-12-24T05:00:00.831Z,2.92
2018-12-24T05:02:29.412Z,2.97
2018-12-24T05:04:57.982Z,2.92
2018-12-24T05:07:26.549Z,2.92
2018-12-24T05:09:55.144Z,2.85
2018-12-24T05:12:23.720Z,2.87
2018-12-24T05:14:52.306Z,2.88
2018-12-24T05:17:20.896Z,2.78
2018-12-24T05:19:49.483Z,2.81
2018-12-24T05:22:18.038Z,2.78
2018-12-24T05:24:46.622Z,2.66
2018-12-24T05:27:15.196Z,2.67
2018-12-24T05:29:43.779Z,2.64
2018-12-24T05:32:12.343Z,2.66
2018-12-24T05:34:40.904Z,2.64
2018-12-24T05:37:09.487Z,2.64
2018-12-24T05:39:38.048Z,2.66
2018-12-24T05:42:06.626Z,2.68
2018-12-24T05:44:35.195Z,2.68
2018-12-24T05:47:03.777Z,2.65
2018-12-24T05:49:32.344Z,2.70
2018-12-24T05:52:00.926Z,2.73
2018-12-24T05:54:29.489Z,2.66
2018-12-24T05:56:58.061Z,2.62
2018-12-24T05:59:26.618Z,2.67
2018-12-24T06:01:55.205Z,2.64
2018-12-24T06:04:23.762Z,2.68
2018-12-24T06:06:52.346Z,2.54
2018-12-24T06:09:20.914Z,2.54
2018-12-24T06:11:49.500Z,2.31
2018-12-24T06:14:18.058Z,2.26
2018-12-24T06:16:46.641Z,2.26
2018-12-24T06:19:15.226Z,2.18
2018-12-24T06:21:43.808Z,2.17
2018-12-24T06:24:12.393Z,2.19
2018-12-24T06:26:40.991Z,2.20
2018-12-24T06:29:09.560Z,2.03
2018-12-24T06:31:38.147Z,2.11
2018-12-24T06:34:06.696Z,2.09
2018-12-24T06:36:35.275Z,2.07
2018-12-24T06:39:24.469Z,2.08
2018-12-24T06:41:53.119Z,2.08
2018-12-24T06:44:21.699Z,2.11
2018-12-24T06:46:50.298Z,2.07
2018-12-24T06:49:18.858Z,2.05
2018-12-24T06:51:47.462Z,1.97
2018-12-24T06:54:16.027Z,1.96
2018-12-24T06:56:44.613Z,2.01
2018-12-24T06:59:13.180Z,2.00
2018-12-24T07:01:41.788Z,2.03
2018-12-24T07:04:10.360Z,2.02
2018-12-24T07:06:38.945Z,1.98
2018-12-24T07:09:07.538Z,1.97
2018-12-24T07:11:36.137Z,1.93
2018-12-24T07:14:04.709Z,1.92
2018-12-24T07:16:33.308Z,1.92
2018-12-24T07:19:01.895Z,1.94
2018-12-24T07:21:49.614Z,1.94
2018-12-24T07:24:18.250Z,2.02
2018-12-24T07:26:46.827Z,1.96
2018-12-24T07:29:15.387Z,1.94
2018-12-24T07:31:43.966Z,1.93
2018-12-24T07:34:12.530Z,1.91
2018-12-24T07:36:41.131Z,1.73
2018-12-24T07:39:09.700Z,1.72
2018-12-24T07:41:38.293Z,1.63
2018-12-24T07:44:06.846Z,1.58
2018-12-24T07:46:35.429Z,1.56
2018-12-24T07:49:03.981Z,1.51
2018-12-24T07:51:32.599Z,1.56
2018-12-24T07:54:01.175Z,1.34
2018-12-24T07:56:29.753Z,1.40
2018-12-24T07:58:58.420Z,1.42
2018-12-24T08:01:27.001Z,1.32
2018-12-24T08:03:55.586Z,1.43
2018-12-24T08:06:24.134Z,1.42
2018-12-24T08:08:52.720Z,1.44
2018-12-24T08:11:21.288Z,1.42
2018-12-24T08:13:49.989Z,1.46
2018-12-24T08:16:18.559Z,1.52
2018-12-24T08:19:06.495Z,1.42
2018-12-24T08:21:35.130Z,1.32
2018-12-24T08:24:03.722Z,1.27
2018-12-24T08:26:32.273Z,1.30
2018-12-24T08:29:00.854Z,0.95
2018-12-24T08:34:16.859Z,0.96
2018-12-24T08:36:45.425Z,0.93
2018-12-24T08:39:14.071Z,0.92
2018-12-24T08:41:42.590Z,0.94
2018-12-24T08:44:11.185Z,0.91
2018-12-24T08:46:39.743Z,0.91
2018-12-24T08:49:08.341Z,0.95
2018-12-24T08:54:26.017Z,0.88
2018-12-24T08:56:54.594Z,0.97
2018-12-24T08:59:23.145Z,0.99
2018-12-24T09:01:51.714Z,1.03
2018-12-24T09:04:20.313Z,1.04
2018-12-24T09:06:48.953Z,1.03
2018-12-24T09:09:18.982Z,1.04
2018-12-24T09:11:47.804Z,1.02
2018-12-24T09:14:35.504Z,1.05
2018-12-24T09:17:04.059Z,1.13
2018-12-24T09:19:32.642Z,1.08
2018-12-24T09:22:01.210Z,1.10
2018-12-24T09:24:29.809Z,1.09
2018-12-24T09:26:58.376Z,1.16
2018-12-24T09:29:26.960Z,1.10
2018-12-24T09:31:55.524Z,1.16
2018-12-24T09:34:24.126Z,1.16
2018-12-24T09:36:52.698Z,1.23
2018-12-24T09:39:21.279Z,1.29
2018-12-24T09:41:49.831Z,1.20
2018-12-24T09:44:18.434Z,1.20
2018-12-24T09:46:46.994Z,1.19
2018-12-24T09:49:15.635Z,1.29
2018-12-24T09:51:44.209Z,1.28
2018-12-24T09:54:12.820Z,1.24
2018-12-24T09:56:41.459Z,1.27
2018-12-24T09:59:10.053Z,1.33
2018-12-24T10:01:38.596Z,1.36
2018-12-24T10:04:28.207Z,1.40
2018-12-24T10:09:53.027Z,1.44
2018-12-24T10:12:21.599Z,1.42
2018-12-24T10:14:50.192Z,1.47
2018-12-24T10:17:18.749Z,1.48
2018-12-24T10:19:47.332Z,1.53
2018-12-24T10:22:15.903Z,1.54
2018-12-24T10:24:44.472Z,1.60
2018-12-24T10:27:13.035Z,1.62
2018-12-24T10:30:00.986Z,1.65
2018-12-24T10:32:29.551Z,1.67
2018-12-24T10:34:58.153Z,1.73
2018-12-24T10:37:26.724Z,1.74
2018-12-24T10:40:14.581Z,1.62
2018-12-24T10:42:43.142Z,1.54
2018-12-24T10:45:16.316Z,1.53
2018-12-24T10:47:42.050Z,1.57
2018-12-24T10:50:29.829Z,1.53
2018-12-24T10:52:58.382Z,1.55
2018-12-24T10:55:26.967Z,1.45
2018-12-24T10:57:55.644Z,1.55
2018-12-24T11:00:24.236Z,1.59
2018-12-24T11:02:52.805Z,1.69
2018-12-24T11:05:21.389Z,1.64
2018-12-24T11:07:49.954Z,1.52
2018-12-24T11:10:18.537Z,1.56
2018-12-24T11:13:06.410Z,1.62
2018-12-24T11:15:34.990Z,1.58
2018-12-24T11:23:25.373Z,1.54
2018-12-24T11:25:53.967Z,1.49
2018-12-24T11:28:22.541Z,1.54
2018-12-24T11:30:51.157Z,1.51
2018-12-24T11:33:19.724Z,1.52
2018-12-24T11:35:48.323Z,1.50
2018-12-24T11:38:16.913Z,1.44
2018-12-24T11:40:45.507Z,1.41
2018-12-24T11:43:14.055Z,1.47
2018-12-24T11:45:42.664Z,1.52
2018-12-24T11:48:11.244Z,1.50
2018-12-24T11:50:39.848Z,1.52
2018-12-24T11:53:08.418Z,1.50
2018-12-24T11:55:37.013Z,1.60
2018-12-24T11:58:24.767Z,1.65
2018-12-24T12:00:53.359Z,1.64
2018-12-24T12:03:21.920Z,1.51
2018-12-24T12:05:50.505Z,1.48
2018-12-24T12:08:19.069Z,1.53
2018-12-24T12:10:47.648Z,1.58
2018-12-24T12:13:16.222Z,1.62
2018-12-24T12:16:03.977Z,1.64
2018-12-24T12:18:32.494Z,1.69
2018-12-24T12:21:20.197Z,1.66
2018-12-24T12:23:48.763Z,1.72
2018-12-24T12:26:17.348Z,1.64
2018-12-24T12:28:45.923Z,1.74
2018-12-24T12:31:14.529Z,1.72
2018-12-24T12:33:43.093Z,1.79
2018-12-24T12:36:11.675Z,1.69
2018-12-24T12:38:40.280Z,1.71
2018-12-24T12:41:08.864Z,1.74
2018-12-24T12:43:37.430Z,1.80
2018-12-24T12:46:06.020Z,1.92
2018-12-24T12:48:34.591Z,1.93
2018-12-24T12:51:03.282Z,1.90
2018-12-24T12:53:31.891Z,1.87
2018-12-24T12:56:00.521Z,1.93
2018-12-24T12:58:29.064Z,1.87
2018-12-24T13:00:57.662Z,1.95
2018-12-24T13:03:26.227Z,1.91
2018-12-24T13:05:54.815Z,1.90
2018-12-24T13:08:23.382Z,1.86
2018-12-24T13:10:51.986Z,1.89
2018-12-24T13:13:20.549Z,1.91
2018-12-24T13:15:49.137Z,1.93
2018-12-24T13:18:17.732Z,1.90
2018-12-24T13:20:46.402Z,1.92
2018-12-24T13:23:14.973Z,1.90
2018-12-24T13:25:43.571Z,1.88
2018-12-24T13:28:12.191Z,1.90
2018-12-24T13:30:40.775Z,1.90
2018-12-24T13:33:09.358Z,1.89
2018-12-24T13:35:37.954Z,1.89
2018-12-24T13:38:06.578Z,1.89
2018-12-24T13:40:35.180Z,1.91
2018-12-24T13:43:03.761Z,1.89
2018-12-24T13:45:32.367Z,1.92
2018-12-24T13:48:08.461Z,1.96
2018-12-24T13:50:37.044Z,1.92
2018-12-24T13:53:05.674Z,1.96
2018-12-24T13:55:34.265Z,1.92
2018-12-24T13:58:02.828Z,1.99
2018-12-24T14:00:31.408Z,1.98
2018-12-24T14:02:59.965Z,1.94
2018-12-24T14:08:02.406Z,2.03
2018-12-24T14:10:30.971Z,2.04
2018-12-24T14:12:59.529Z,2.07
2018-12-24T14:15:28.105Z,2.03
2018-12-24T14:17:56.681Z,2.12
2018-12-24T14:22:58.820Z,2.09
2018-12-24T14:25:27.406Z,2.01
2018-12-24T14:27:56.022Z,2.03
2018-12-24T14:30:24.602Z,2.07
2018-12-24T14:32:53.189Z,2.10
2018-12-24T14:35:41.020Z,2.11
2018-12-24T14:38:09.579Z,2.10
2018-12-24T14:40:38.171Z,2.09
2018-12-24T14:43:06.748Z,2.09
2018-12-24T14:45:35.332Z,2.03
2018-12-24T14:48:03.915Z,2.06
2018-12-24T14:50:32.497Z,2.08
2018-12-24T14:53:01.064Z,2.08
2018-12-24T14:55:29.657Z,2.04
2018-12-24T14:58:17.406Z,2.04
2018-12-24T15:00:45.987Z,2.07
2018-12-24T15:03:14.553Z,2.06
2018-12-24T15:05:43.150Z,2.03
2018-12-24T15:08:11.719Z,2.09
2018-12-24T15:10:40.301Z,2.07
2018-12-24T15:13:08.882Z,2.03
2018-12-24T15:15:37.473Z,2.09
2018-12-24T15:18:06.023Z,2.09
2018-12-24T15:20:34.585Z,2.12
2018-12-24T15:23:03.187Z,2.17
2018-12-24T15:25:31.750Z,2.14
2018-12-24T15:28:00.353Z,2.15
2018-12-24T15:30:28.901Z,2.14
2018-12-24T15:32:57.498Z,2.17
2018-12-24T15:35:26.057Z,2.23
2018-12-24T15:37:54.710Z,2.19
2018-12-24T15:40:23.274Z,2.10
2018-12-24T15:42:51.860Z,2.20
2018-12-24T15:45:20.419Z,2.27
2018-12-24T15:47:49.002Z,2.21
2018-12-24T15:50:17.645Z,2.20
2018-12-24T15:52:46.230Z,2.13
2018-12-24T15:55:14.786Z,2.17
2018-12-24T15:57:43.394Z,2.17
2018-12-24T16:00:11.981Z,2.25
2018-12-24T16:02:40.561Z,2.23
2018-12-24T16:05:09.125Z,2.30
2018-12-24T16:07:37.709Z,2.27
2018-12-24T16:10:06.347Z,2.25
2018-12-24T16:12:34.948Z,2.26
2018-12-24T16:15:03.501Z,2.25
2018-12-24T16:17:32.114Z,2.29
2018-12-24T16:20:00.695Z,2.28
2018-12-24T16:22:31.044Z,2.33
2018-12-24T16:24:59.563Z,2.31
2018-12-24T16:30:01.672Z,2.28
2018-12-24T16:32:30.250Z,2.28
2018-12-24T16:34:58.812Z,2.30
2018-12-24T16:37:27.441Z,2.32
2018-12-24T16:39:55.985Z,2.34
2018-12-24T16:42:24.572Z,2.38
2018-12-24T16:44:53.201Z,2.43
2018-12-24T16:47:21.785Z,2.37
2018-12-24T16:49:50.340Z,2.20
2018-12-24T16:52:18.920Z,2.28
2018-12-24T16:57:36.572Z,2.34
2018-12-24T17:00:25.929Z,2.36
2018-12-24T17:02:54.523Z,2.36
2018-12-24T17:05:23.088Z,2.23
2018-12-24T17:07:51.679Z,2.29
2018-12-24T17:10:20.274Z,2.36
2018-12-24T17:12:48.858Z,2.33
2018-12-24T17:15:17.432Z,2.25
2018-12-24T17:17:46.030Z,2.32
2018-12-24T17:20:14.596Z,2.32
2018-12-24T17:22:43.153Z,2.36
2018-12-24T17:25:11.736Z,2.35
2018-12-24T17:27:40.386Z,2.30
2018-12-24T17:30:08.967Z,2.29
2018-12-24T17:32:37.530Z,2.33
2018-12-24T17:35:26.906Z,2.27
2018-12-24T17:37:55.488Z,2.31
2018-12-24T17:40:24.058Z,2.36
2018-12-24T17:42:52.688Z,2.38
2018-12-24T17:45:21.300Z,2.39
2018-12-24T17:47:49.847Z,2.37
2018-12-24T17:50:37.544Z,2.41
2018-12-24T17:53:06.140Z,2.41
2018-12-24T17:55:34.713Z,2.10
2018-12-24T17:58:03.267Z,2.31
2018-12-24T18:00:31.847Z,2.34
2018-12-24T18:03:00.401Z,2.33
2018-12-24T18:05:28.981Z,2.31
2018-12-24T18:07:57.543Z,2.31
2018-12-24T18:10:26.133Z,2.34
2018-12-24T18:12:54.695Z,2.31
2018-12-24T18:15:23.288Z,2.40
2018-12-24T18:17:51.859Z,2.43
2018-12-24T18:20:20.456Z,2.37
2018-12-24T18:22:49.020Z,2.40
2018-12-24T18:25:17.633Z,2.42
2018-12-24T18:27:46.215Z,2.40
2018-12-24T18:30:14.850Z,2.39
2018-12-24T18:32:43.412Z,2.47
2018-12-24T18:35:11.985Z,2.46
2018-12-24T18:37:40.553Z,2.47
2018-12-24T18:40:09.138Z,2.43
2018-12-24T18:42:37.735Z,2.45
2018-12-24T18:45:06.376Z,2.47
2018-12-24T18:47:34.934Z,2.47
2018-12-24T18:50:24.143Z,2.50
2018-12-24T18:52:52.707Z,2.37
2018-12-24T18:55:21.303Z,2.50
2018-12-24T18:57:49.857Z,2.42
2018-12-24T19:00:18.448Z,2.49
2018-12-24T19:02:47.010Z,2.43
2018-12-24T19:05:15.615Z,2.45
2018-12-24T19:07:44.172Z,2.54
2018-12-24T19:10:12.763Z,2.53
2018-12-24T19:12:41.347Z,2.53
2018-12-24T19:15:09.929Z,2.46
2018-12-24T19:17:41.522Z,2.48
2018-12-24T19:20:29.608Z,2.50
2018-12-24T19:22:58.222Z,2.43
2018-12-24T19:25:26.793Z,2.52
2018-12-24T19:27:55.387Z,2.45
2018-12-24T19:30:23.972Z,2.46
2018-12-24T19:32:52.549Z,2.52
2018-12-24T19:38:08.566Z,2.60
2018-12-24T19:40:37.123Z,2.53
2018-12-24T19:43:05.709Z,2.55
2018-12-24T19:45:34.270Z,2.58
2018-12-24T19:48:02.877Z,2.60
2018-12-24T19:50:31.466Z,2.54
2018-12-24T19:53:00.074Z,2.60
2018-12-24T19:55:28.643Z,2.62
2018-12-24T19:57:57.277Z,2.56
2018-12-24T20:00:25.871Z,2.57
2018-12-24T20:02:54.460Z,2.59
2018-12-24T20:05:23.033Z,2.62
2018-12-24T20:07:51.629Z,2.63
2018-12-24T20:10:20.201Z,2.59
2018-12-24T20:12:48.809Z,2.65
2018-12-24T20:15:17.483Z,2.70
2018-12-24T20:17:46.114Z,2.68
2018-12-24T20:20:14.765Z,2.60
2018-12-24T20:22:43.350Z,2.66
2018-12-24T20:25:11.917Z,2.68
2018-12-24T20:27:40.525Z,2.71
2018-12-24T20:30:28.250Z,2.63
2018-12-24T20:35:30.709Z,2.78
2018-12-24T20:37:59.301Z,2.77
2018-12-24T20:40:27.916Z,2.77
2018-12-24T20:42:56.469Z,2.71
2018-12-24T20:45:25.067Z,2.69
2018-12-24T20:47:53.662Z,2.74
2018-12-24T20:50:22.267Z,2.79
2018-12-24T20:52:50.976Z,2.79
2018-12-24T20:55:19.585Z,2.76
2018-12-24T20:57:48.141Z,2.79
2018-12-24T21:00:16.726Z,2.84
2018-12-24T21:02:45.292Z,2.78
2018-12-24T21:05:13.875Z,2.80
2018-12-24T21:07:42.750Z,2.79
2018-12-24T21:10:11.355Z,2.81
2018-12-24T21:12:39.938Z,2.81
2018-12-24T21:15:08.535Z,2.82
2018-12-24T21:17:38.992Z,2.86
2018-12-24T21:20:28.349Z,2.88
2018-12-24T21:22:56.926Z,2.89
2018-12-24T21:25:25.606Z,2.83
2018-12-24T21:27:54.153Z,2.83
2018-12-24T21:30:22.814Z,2.87
2018-12-24T21:32:51.382Z,2.89
2018-12-24T21:35:19.968Z,2.92
2018-12-24T21:37:48.525Z,2.98
2018-12-24T21:40:17.320Z,2.98
2018-12-24T21:42:54.415Z,2.89
2018-12-24T21:45:16.264Z,2.88
2018-12-24T21:47:44.821Z,2.90
2018-12-24T21:53:00.916Z,2.95
2018-12-24T21:58:16.989Z,2.83
2018-12-24T22:00:45.575Z,2.81
2018-12-24T22:03:14.138Z,2.86
2018-12-24T22:05:42.843Z,2.88
2018-12-24T22:08:11.414Z,2.88
2018-12-24T22:10:39.962Z,2.76
2018-12-24T22:13:08.710Z,2.82
2018-12-24T22:15:37.351Z,2.88
2018-12-24T22:18:05.917Z,2.88
2018-12-24T22:23:27.791Z,2.90
2018-12-24T22:25:56.384Z,2.90
2018-12-24T22:28:25.139Z,2.93
2018-12-24T22:30:53.710Z,2.90
2018-12-24T22:33:22.302Z,2.95
2018-12-24T22:35:50.881Z,2.97
2018-12-24T22:38:19.655Z,3.02
2018-12-24T22:40:48.218Z,3.03
2018-12-24T22:43:16.872Z,3.06
2018-12-24T22:45:45.508Z,3.08
2018-12-24T22:48:14.106Z,3.12
2018-12-24T22:50:42.658Z,3.13
2018-12-24T22:53:11.436Z,3.19
2018-12-24T22:58:27.729Z,3.24
2018-12-24T23:03:45.340Z,3.32
2018-12-24T23:06:13.910Z,3.34
2018-12-24T23:11:36.305Z,3.39
2018-12-24T23:14:04.890Z,3.39
2018-12-24T23:16:52.666Z,3.40
2018-12-24T23:19:21.220Z,3.43
2018-12-24T23:22:11.070Z,3.47
2018-12-24T23:24:39.631Z,3.49
2018-12-24T23:27:08.257Z,3.49
2018-12-24T23:29:56.133Z,3.52
2018-12-24T23:32:24.716Z,3.52
2018-12-24T23:34:53.353Z,3.58
2018-12-24T23:37:22.004Z,3.54
2018-12-24T23:39:50.574Z,3.58
2018-12-24T23:42:20.881Z,3.56
2018-12-24T23:44:49.510Z,3.58
2018-12-24T23:47:18.173Z,3.61
2018-12-24T23:49:46.744Z,3.57
2018-12-24T23:52:15.563Z,3.62
2018-12-24T23:57:31.875Z,3.64
